sensor_id;sensor_type;location;lat;lon;timestamp;P1;durP1;ratioP1;P2;durP2;ratioP2
33824;SDS011;20127;48.962;8.342;2023-10-13T00:01:36;10.98;;;4.35;;
33824;SDS011;20127;48.962;8.342;2023-10-13T00:04:40;9.75;;;4.57;;
33824;SDS011;20127;48.962;8.342;2023-10-13T00:07:42;6.55;;;4.53;;
33824;SDS011;20127;48.962;8.342;2023-10-13T00:10:43;9.20;;;4.43;;
33824;SDS011;20127;48.962;8.342;2023-10-13T00:13:45;7.93;;;4.20;;
33824;SDS011;20127;48.962;8.342;2023-10-13T00:16:50;7.78;;;5.00;;
33824;SDS011;20127;48.962;8.342;2023-10-13T00:20:07;7.18;;;3.95;;
33824;SDS011;20127;48.962;8.342;2023-10-13T00:23:13;6.90;;;4.10;;
33824;SDS011;20127;48.962;8.342;2023-10-13T00:26:15;8.35;;;3.63;;
33824;SDS011;20127;48.962;8.342;2023-10-13T00:29:18;10.55;;;4.13;;
33824;SDS011;20127;48.962;8.342;2023-10-13T00:32:29;5.88;;;4.18;;
33824;SDS011;20127;48.962;8.342;2023-10-13T00:35:33;6.20;;;3.40;;
33824;SDS011;20127;48.962;8.342;2023-10-13T00:38:42;9.82;;;3.80;;
33824;SDS011;20127;48.962;8.342;2023-10-13T00:41:48;5.25;;;3.25;;
33824;SDS011;20127;48.962;8.342;2023-10-13T00:44:52;4.90;;;3.30;;
33824;SDS011;20127;48.962;8.342;2023-10-13T00:47:54;5.18;;;2.80;;
33824;SDS011;20127;48.962;8.342;2023-10-13T00:51:00;6.78;;;3.42;;
33824;SDS011;20127;48.962;8.342;2023-10-13T00:54:07;4.70;;;3.38;;
33824;SDS011;20127;48.962;8.342;2023-10-13T00:57:11;4.25;;;2.97;;
33824;SDS011;20127;48.962;8.342;2023-10-13T01:00:26;7.63;;;3.67;;
33824;SDS011;20127;48.962;8.342;2023-10-13T01:03:28;4.75;;;3.17;;
33824;SDS011;20127;48.962;8.342;2023-10-13T01:06:32;5.88;;;3.90;;
33824;SDS011;20127;48.962;8.342;2023-10-13T01:09:40;5.85;;;3.38;;
33824;SDS011;20127;48.962;8.342;2023-10-13T01:12:43;8.32;;;3.30;;
33824;SDS011;20127;48.962;8.342;2023-10-13T01:15:45;5.07;;;3.47;;
33824;SDS011;20127;48.962;8.342;2023-10-13T01:18:47;4.63;;;3.15;;
33824;SDS011;20127;48.962;8.342;2023-10-13T01:21:49;3.88;;;2.55;;
33824;SDS011;20127;48.962;8.342;2023-10-13T01:24:57;6.13;;;2.65;;
33824;SDS011;20127;48.962;8.342;2023-10-13T01:28:06;7.68;;;3.15;;
33824;SDS011;20127;48.962;8.342;2023-10-13T01:31:09;7.07;;;2.88;;
33824;SDS011;20127;48.962;8.342;2023-10-13T01:34:13;5.05;;;3.10;;
33824;SDS011;20127;48.962;8.342;2023-10-13T01:37:20;8.48;;;2.90;;
33824;SDS011;20127;48.962;8.342;2023-10-13T01:40:22;6.10;;;3.03;;
33824;SDS011;20127;48.962;8.342;2023-10-13T01:43:29;7.07;;;4.55;;
33824;SDS011;20127;48.962;8.342;2023-10-13T01:46:29;6.60;;;3.28;;
33824;SDS011;20127;48.962;8.342;2023-10-13T01:49:31;3.00;;;2.22;;
33824;SDS011;20127;48.962;8.342;2023-10-13T01:52:41;4.55;;;2.75;;
33824;SDS011;20127;48.962;8.342;2023-10-13T01:55:44;5.18;;;2.40;;
33824;SDS011;20127;48.962;8.342;2023-10-13T01:58:45;7.45;;;2.72;;
33824;SDS011;20127;48.962;8.342;2023-10-13T02:01:47;4.60;;;2.25;;
33824;SDS011;20127;48.962;8.342;2023-10-13T02:04:51;9.48;;;3.08;;
33824;SDS011;20127;48.962;8.342;2023-10-13T02:07:57;9.88;;;3.50;;
33824;SDS011;20127;48.962;8.342;2023-10-13T02:11:03;4.15;;;2.63;;
33824;SDS011;20127;48.962;8.342;2023-10-13T02:14:07;4.13;;;3.03;;
33824;SDS011;20127;48.962;8.342;2023-10-13T02:17:11;3.97;;;3.22;;
33824;SDS011;20127;48.962;8.342;2023-10-13T02:20:13;5.15;;;3.42;;
33824;SDS011;20127;48.962;8.342;2023-10-13T02:23:14;5.50;;;3.28;;
33824;SDS011;20127;48.962;8.342;2023-10-13T02:26:17;4.40;;;3.10;;
33824;SDS011;20127;48.962;8.342;2023-10-13T02:29:30;7.32;;;3.13;;
33824;SDS011;20127;48.962;8.342;2023-10-13T02:32:38;4.13;;;3.03;;
33824;SDS011;20127;48.962;8.342;2023-10-13T02:35:41;3.35;;;2.78;;
33824;SDS011;20127;48.962;8.342;2023-10-13T02:38:50;4.30;;;2.67;;
33824;SDS011;20127;48.962;8.342;2023-10-13T02:41:53;4.85;;;2.97;;
33824;SDS011;20127;48.962;8.342;2023-10-13T02:44:55;7.22;;;2.75;;
33824;SDS011;20127;48.962;8.342;2023-10-13T02:47:57;3.97;;;2.80;;
33824;SDS011;20127;48.962;8.342;2023-10-13T02:51:13;6.35;;;3.03;;
33824;SDS011;20127;48.962;8.342;2023-10-13T02:54:17;10.43;;;3.03;;
33824;SDS011;20127;48.962;8.342;2023-10-13T02:57:19;6.60;;;3.08;;
33824;SDS011;20127;48.962;8.342;2023-10-13T03:00:23;6.68;;;3.60;;
33824;SDS011;20127;48.962;8.342;2023-10-13T03:03:31;4.68;;;3.85;;
33824;SDS011;20127;48.962;8.342;2023-10-13T03:06:34;8.85;;;3.90;;
33824;SDS011;20127;48.962;8.342;2023-10-13T03:09:40;9.18;;;3.53;;
33824;SDS011;20127;48.962;8.342;2023-10-13T03:12:51;7.75;;;3.47;;
33824;SDS011;20127;48.962;8.342;2023-10-13T03:15:53;5.50;;;3.00;;
33824;SDS011;20127;48.962;8.342;2023-10-13T03:18:55;3.65;;;3.25;;
33824;SDS011;20127;48.962;8.342;2023-10-13T03:21:57;6.35;;;3.17;;
33824;SDS011;20127;48.962;8.342;2023-10-13T03:25:09;4.82;;;3.20;;
33824;SDS011;20127;48.962;8.342;2023-10-13T03:28:19;8.40;;;3.55;;
33824;SDS011;20127;48.962;8.342;2023-10-13T03:31:25;7.82;;;4.25;;
33824;SDS011;20127;48.962;8.342;2023-10-13T03:34:29;6.38;;;3.53;;
33824;SDS011;20127;48.962;8.342;2023-10-13T03:37:31;15.85;;;4.07;;
33824;SDS011;20127;48.962;8.342;2023-10-13T03:40:39;5.13;;;3.90;;
33824;SDS011;20127;48.962;8.342;2023-10-13T03:43:42;9.18;;;4.07;;
33824;SDS011;20127;48.962;8.342;2023-10-13T03:46:50;7.10;;;3.42;;
33824;SDS011;20127;48.962;8.342;2023-10-13T03:49:54;7.43;;;4.15;;
33824;SDS011;20127;48.962;8.342;2023-10-13T03:53:15;8.07;;;4.20;;
33824;SDS011;20127;48.962;8.342;2023-10-13T03:56:18;6.50;;;3.88;;
33824;SDS011;20127;48.962;8.342;2023-10-13T03:59:27;8.80;;;3.65;;
33824;SDS011;20127;48.962;8.342;2023-10-13T04:02:35;7.00;;;4.10;;
33824;SDS011;20127;48.962;8.342;2023-10-13T04:05:45;5.32;;;4.00;;
33824;SDS011;20127;48.962;8.342;2023-10-13T04:09:01;7.20;;;3.42;;
33824;SDS011;20127;48.962;8.342;2023-10-13T04:12:16;5.75;;;4.30;;
33824;SDS011;20127;48.962;8.342;2023-10-13T04:18:42;5.80;;;3.25;;
33824;SDS011;20127;48.962;8.342;2023-10-13T04:22:08;5.60;;;3.72;;
33824;SDS011;20127;48.962;8.342;2023-10-13T04:25:21;10.55;;;3.85;;
33824;SDS011;20127;48.962;8.342;2023-10-13T04:28:35;10.23;;;4.70;;
33824;SDS011;20127;48.962;8.342;2023-10-13T04:31:56;7.38;;;4.15;;
33824;SDS011;20127;48.962;8.342;2023-10-13T04:35:00;5.40;;;3.83;;
33824;SDS011;20127;48.962;8.342;2023-10-13T04:38:10;5.93;;;4.05;;
33824;SDS011;20127;48.962;8.342;2023-10-13T04:41:19;4.38;;;3.75;;
33824;SDS011;20127;48.962;8.342;2023-10-13T04:44:23;10.05;;;4.72;;
33824;SDS011;20127;48.962;8.342;2023-10-13T04:47:40;6.95;;;3.85;;
33824;SDS011;20127;48.962;8.342;2023-10-13T04:50:59;8.05;;;3.97;;
33824;SDS011;20127;48.962;8.342;2023-10-13T04:54:15;9.13;;;3.80;;
33824;SDS011;20127;48.962;8.342;2023-10-13T04:57:28;5.97;;;4.00;;
33824;SDS011;20127;48.962;8.342;2023-10-13T05:00:34;8.45;;;3.38;;
33824;SDS011;20127;48.962;8.342;2023-10-13T05:03:57;6.70;;;4.63;;
33824;SDS011;20127;48.962;8.342;2023-10-13T05:07:21;5.75;;;4.43;;
33824;SDS011;20127;48.962;8.342;2023-10-13T05:10:40;6.70;;;5.10;;
33824;SDS011;20127;48.962;8.342;2023-10-13T05:14:00;7.85;;;4.35;;
33824;SDS011;20127;48.962;8.342;2023-10-13T05:17:19;7.82;;;3.95;;
33824;SDS011;20127;48.962;8.342;2023-10-13T05:20:39;10.02;;;4.45;;
33824;SDS011;20127;48.962;8.342;2023-10-13T05:23:59;14.15;;;6.07;;
33824;SDS011;20127;48.962;8.342;2023-10-13T05:27:18;10.25;;;4.82;;
33824;SDS011;20127;48.962;8.342;2023-10-13T05:30:38;9.77;;;4.80;;
33824;SDS011;20127;48.962;8.342;2023-10-13T05:33:57;6.40;;;5.38;;
33824;SDS011;20127;48.962;8.342;2023-10-13T05:37:18;6.95;;;4.88;;
33824;SDS011;20127;48.962;8.342;2023-10-13T05:40:37;6.78;;;4.57;;
33824;SDS011;20127;48.962;8.342;2023-10-13T05:43:57;9.15;;;4.72;;
33824;SDS011;20127;48.962;8.342;2023-10-13T05:47:16;6.90;;;4.72;;
33824;SDS011;20127;48.962;8.342;2023-10-13T05:50:46;5.80;;;3.92;;
33824;SDS011;20127;48.962;8.342;2023-10-13T05:54:11;6.55;;;4.25;;
33824;SDS011;20127;48.962;8.342;2023-10-13T05:57:32;5.95;;;4.45;;
33824;SDS011;20127;48.962;8.342;2023-10-13T06:00:51;8.10;;;4.18;;
33824;SDS011;20127;48.962;8.342;2023-10-13T06:04:11;9.52;;;5.03;;
33824;SDS011;20127;48.962;8.342;2023-10-13T06:07:31;7.70;;;4.75;;
33824;SDS011;20127;48.962;8.342;2023-10-13T06:11:00;8.05;;;4.43;;
33824;SDS011;20127;48.962;8.342;2023-10-13T06:14:20;5.50;;;4.72;;
33824;SDS011;20127;48.962;8.342;2023-10-13T06:17:39;6.30;;;4.18;;
33824;SDS011;20127;48.962;8.342;2023-10-13T06:21:00;7.28;;;4.30;;
33824;SDS011;20127;48.962;8.342;2023-10-13T06:24:20;5.78;;;4.22;;
33824;SDS011;20127;48.962;8.342;2023-10-13T06:27:37;30.88;;;7.40;;
33824;SDS011;20127;48.962;8.342;2023-10-13T06:30:57;15.57;;;6.13;;
33824;SDS011;20127;48.962;8.342;2023-10-13T06:34:01;7.82;;;4.63;;
33824;SDS011;20127;48.962;8.342;2023-10-13T06:37:03;6.65;;;5.07;;
33824;SDS011;20127;48.962;8.342;2023-10-13T06:40:22;5.03;;;4.05;;
33824;SDS011;20127;48.962;8.342;2023-10-13T06:43:27;4.68;;;3.50;;
33824;SDS011;20127;48.962;8.342;2023-10-13T06:46:32;12.50;;;5.82;;
33824;SDS011;20127;48.962;8.342;2023-10-13T06:49:35;5.78;;;3.67;;
33824;SDS011;20127;48.962;8.342;2023-10-13T06:52:39;5.82;;;3.95;;
33824;SDS011;20127;48.962;8.342;2023-10-13T06:55:42;8.55;;;4.28;;
33824;SDS011;20127;48.962;8.342;2023-10-13T06:58:48;7.50;;;4.20;;
33824;SDS011;20127;48.962;8.342;2023-10-13T07:01:51;10.45;;;5.20;;
33824;SDS011;20127;48.962;8.342;2023-10-13T07:04:52;6.85;;;3.70;;
33824;SDS011;20127;48.962;8.342;2023-10-13T07:07:57;14.38;;;4.25;;
33824;SDS011;20127;48.962;8.342;2023-10-13T07:10:59;4.90;;;3.83;;
33824;SDS011;20127;48.962;8.342;2023-10-13T07:14:06;9.95;;;5.05;;
33824;SDS011;20127;48.962;8.342;2023-10-13T07:17:10;11.32;;;3.78;;
33824;SDS011;20127;48.962;8.342;2023-10-13T07:20:12;8.23;;;4.22;;
33824;SDS011;20127;48.962;8.342;2023-10-13T07:23:23;6.05;;;3.53;;
33824;SDS011;20127;48.962;8.342;2023-10-13T07:26:25;6.47;;;4.95;;
33824;SDS011;20127;48.962;8.342;2023-10-13T07:29:29;9.02;;;4.45;;
33824;SDS011;20127;48.962;8.342;2023-10-13T07:32:33;6.90;;;3.20;;
33824;SDS011;20127;48.962;8.342;2023-10-13T07:35:35;7.32;;;3.88;;
33824;SDS011;20127;48.962;8.342;2023-10-13T07:38:37;13.80;;;4.00;;
33824;SDS011;20127;48.962;8.342;2023-10-13T07:41:42;5.57;;;3.60;;
33824;SDS011;20127;48.962;8.342;2023-10-13T07:44:45;4.70;;;2.78;;
33824;SDS011;20127;48.962;8.342;2023-10-13T07:47:46;4.55;;;3.42;;
33824;SDS011;20127;48.962;8.342;2023-10-13T07:50:58;3.80;;;2.45;;
33824;SDS011;20127;48.962;8.342;2023-10-13T07:54:03;4.03;;;2.65;;
33824;SDS011;20127;48.962;8.342;2023-10-13T07:57:08;7.22;;;3.00;;
33824;SDS011;20127;48.962;8.342;2023-10-13T08:00:16;4.03;;;2.13;;
33824;SDS011;20127;48.962;8.342;2023-10-13T08:03:29;5.03;;;2.80;;
33824;SDS011;20127;48.962;8.342;2023-10-13T08:06:43;9.18;;;3.22;;
33824;SDS011;20127;48.962;8.342;2023-10-13T08:09:45;5.68;;;2.97;;
33824;SDS011;20127;48.962;8.342;2023-10-13T08:12:51;9.48;;;3.08;;
33824;SDS011;20127;48.962;8.342;2023-10-13T08:15:56;9.27;;;2.55;;
33824;SDS011;20127;48.962;8.342;2023-10-13T08:19:06;8.23;;;2.40;;
33824;SDS011;20127;48.962;8.342;2023-10-13T08:22:11;10.27;;;3.85;;
33824;SDS011;20127;48.962;8.342;2023-10-13T08:25:25;13.77;;;4.78;;
33824;SDS011;20127;48.962;8.342;2023-10-13T08:28:46;6.63;;;2.50;;
33824;SDS011;20127;48.962;8.342;2023-10-13T08:31:55;7.45;;;3.00;;
33824;SDS011;20127;48.962;8.342;2023-10-13T08:35:14;3.90;;;2.35;;
33824;SDS011;20127;48.962;8.342;2023-10-13T08:38:35;5.57;;;2.95;;
33824;SDS011;20127;48.962;8.342;2023-10-13T08:41:51;7.55;;;2.60;;
33824;SDS011;20127;48.962;8.342;2023-10-13T08:45:12;8.43;;;3.20;;
33824;SDS011;20127;48.962;8.342;2023-10-13T08:48:43;5.70;;;2.83;;
33824;SDS011;20127;48.962;8.342;2023-10-13T08:51:47;5.82;;;2.28;;
33824;SDS011;20127;48.962;8.342;2023-10-13T08:54:50;4.43;;;3.20;;
33824;SDS011;20127;48.962;8.342;2023-10-13T08:58:04;7.18;;;2.67;;
33824;SDS011;20127;48.962;8.342;2023-10-13T09:01:14;11.27;;;3.33;;
33824;SDS011;20127;48.962;8.342;2023-10-13T09:04:35;6.50;;;2.42;;
33824;SDS011;20127;48.962;8.342;2023-10-13T09:07:44;5.57;;;1.77;;
33824;SDS011;20127;48.962;8.342;2023-10-13T09:10:47;3.03;;;2.00;;
33824;SDS011;20127;48.962;8.342;2023-10-13T09:14:12;6.43;;;2.35;;
33824;SDS011;20127;48.962;8.342;2023-10-13T09:17:40;7.00;;;2.28;;
33824;SDS011;20127;48.962;8.342;2023-10-13T09:20:43;5.25;;;3.60;;
33824;SDS011;20127;48.962;8.342;2023-10-13T09:23:46;10.27;;;2.20;;
33824;SDS011;20127;48.962;8.342;2023-10-13T09:26:48;2.17;;;1.95;;
33824;SDS011;20127;48.962;8.342;2023-10-13T09:29:56;6.43;;;2.90;;
33824;SDS011;20127;48.962;8.342;2023-10-13T09:33:06;5.65;;;2.35;;
33824;SDS011;20127;48.962;8.342;2023-10-13T09:36:10;6.35;;;1.88;;
33824;SDS011;20127;48.962;8.342;2023-10-13T09:39:13;3.08;;;1.95;;
33824;SDS011;20127;48.962;8.342;2023-10-13T09:42:29;5.70;;;2.33;;
33824;SDS011;20127;48.962;8.342;2023-10-13T09:45:34;7.03;;;2.25;;
33824;SDS011;20127;48.962;8.342;2023-10-13T09:48:40;3.30;;;2.17;;
33824;SDS011;20127;48.962;8.342;2023-10-13T09:51:47;5.07;;;2.67;;
33824;SDS011;20127;48.962;8.342;2023-10-13T09:55:06;5.65;;;1.95;;
33824;SDS011;20127;48.962;8.342;2023-10-13T09:58:14;7.43;;;1.85;;
33824;SDS011;20127;48.962;8.342;2023-10-13T10:01:19;10.80;;;3.00;;
33824;SDS011;20127;48.962;8.342;2023-10-13T10:04:33;9.98;;;2.17;;
33824;SDS011;20127;48.962;8.342;2023-10-13T10:07:41;6.82;;;2.40;;
33824;SDS011;20127;48.962;8.342;2023-10-13T10:10:46;4.47;;;1.85;;
33824;SDS011;20127;48.962;8.342;2023-10-13T10:13:53;3.40;;;2.55;;
33824;SDS011;20127;48.962;8.342;2023-10-13T10:17:06;5.25;;;3.40;;
33824;SDS011;20127;48.962;8.342;2023-10-13T10:20:09;4.20;;;2.08;;
33824;SDS011;20127;48.962;8.342;2023-10-13T10:23:24;3.20;;;1.75;;
33824;SDS011;20127;48.962;8.342;2023-10-13T10:26:28;6.63;;;2.30;;
33824;SDS011;20127;48.962;8.342;2023-10-13T10:29:30;4.18;;;2.92;;
33824;SDS011;20127;48.962;8.342;2023-10-13T10:32:33;5.97;;;2.00;;
33824;SDS011;20127;48.962;8.342;2023-10-13T10:35:36;5.95;;;1.95;;
33824;SDS011;20127;48.962;8.342;2023-10-13T10:38:50;5.22;;;1.92;;
33824;SDS011;20127;48.962;8.342;2023-10-13T10:41:54;5.68;;;1.77;;
33824;SDS011;20127;48.962;8.342;2023-10-13T10:45:01;5.82;;;2.22;;
33824;SDS011;20127;48.962;8.342;2023-10-13T10:48:09;5.28;;;1.67;;
33824;SDS011;20127;48.962;8.342;2023-10-13T10:51:17;3.55;;;2.15;;
33824;SDS011;20127;48.962;8.342;2023-10-13T10:54:23;4.82;;;1.88;;
33824;SDS011;20127;48.962;8.342;2023-10-13T10:57:30;7.85;;;2.60;;
33824;SDS011;20127;48.962;8.342;2023-10-13T11:00:37;4.75;;;2.85;;
33824;SDS011;20127;48.962;8.342;2023-10-13T11:03:55;7.38;;;2.78;;
33824;SDS011;20127;48.962;8.342;2023-10-13T11:06:58;6.43;;;2.25;;
33824;SDS011;20127;48.962;8.342;2023-10-13T11:10:07;6.85;;;2.08;;
33824;SDS011;20127;48.962;8.342;2023-10-13T11:13:12;10.20;;;3.33;;
33824;SDS011;20127;48.962;8.342;2023-10-13T11:16:21;7.05;;;1.48;;
33824;SDS011;20127;48.962;8.342;2023-10-13T11:19:34;4.25;;;2.63;;
33824;SDS011;20127;48.962;8.342;2023-10-13T11:22:37;4.40;;;2.17;;
33824;SDS011;20127;48.962;8.342;2023-10-13T11:25:43;8.70;;;1.80;;
33824;SDS011;20127;48.962;8.342;2023-10-13T11:28:49;6.35;;;2.40;;
33824;SDS011;20127;48.962;8.342;2023-10-13T11:31:51;5.90;;;2.88;;
33824;SDS011;20127;48.962;8.342;2023-10-13T11:34:58;5.70;;;2.72;;
33824;SDS011;20127;48.962;8.342;2023-10-13T11:38:00;10.65;;;2.05;;
33824;SDS011;20127;48.962;8.342;2023-10-13T11:41:13;5.32;;;2.35;;
33824;SDS011;20127;48.962;8.342;2023-10-13T11:44:20;5.00;;;2.50;;
33824;SDS011;20127;48.962;8.342;2023-10-13T11:47:31;11.27;;;2.85;;
33824;SDS011;20127;48.962;8.342;2023-10-13T11:50:47;12.63;;;2.17;;
33824;SDS011;20127;48.962;8.342;2023-10-13T11:53:50;3.45;;;2.08;;
33824;SDS011;20127;48.962;8.342;2023-10-13T11:56:54;5.55;;;2.53;;
33824;SDS011;20127;48.962;8.342;2023-10-13T11:59:58;5.47;;;3.05;;
33824;SDS011;20127;48.962;8.342;2023-10-13T12:03:25;6.38;;;1.83;;
33824;SDS011;20127;48.962;8.342;2023-10-13T12:06:44;8.57;;;1.95;;
33824;SDS011;20127;48.962;8.342;2023-10-13T12:09:59;3.97;;;1.80;;
33824;SDS011;20127;48.962;8.342;2023-10-13T12:13:18;6.70;;;2.22;;
33824;SDS011;20127;48.962;8.342;2023-10-13T12:16:20;5.85;;;2.00;;
33824;SDS011;20127;48.962;8.342;2023-10-13T12:19:23;5.53;;;2.00;;
33824;SDS011;20127;48.962;8.342;2023-10-13T12:22:26;6.07;;;2.13;;
33824;SDS011;20127;48.962;8.342;2023-10-13T12:25:28;4.90;;;2.50;;
33824;SDS011;20127;48.962;8.342;2023-10-13T12:28:45;8.07;;;2.97;;
33824;SDS011;20127;48.962;8.342;2023-10-13T12:31:52;6.43;;;2.63;;
33824;SDS011;20127;48.962;8.342;2023-10-13T12:35:08;4.95;;;2.00;;
33824;SDS011;20127;48.962;8.342;2023-10-13T12:38:29;9.35;;;1.73;;
33824;SDS011;20127;48.962;8.342;2023-10-13T12:41:50;5.57;;;2.50;;
33824;SDS011;20127;48.962;8.342;2023-10-13T12:45:11;5.68;;;2.13;;
33824;SDS011;20127;48.962;8.342;2023-10-13T12:48:45;7.22;;;1.95;;
33824;SDS011;20127;48.962;8.342;2023-10-13T12:52:16;6.47;;;2.92;;
33824;SDS011;20127;48.962;8.342;2023-10-13T12:55:19;4.07;;;2.10;;
33824;SDS011;20127;48.962;8.342;2023-10-13T12:58:24;11.65;;;4.28;;
33824;SDS011;20127;48.962;8.342;2023-10-13T13:01:28;5.35;;;1.80;;
33824;SDS011;20127;48.962;8.342;2023-10-13T13:04:34;5.47;;;1.88;;
33824;SDS011;20127;48.962;8.342;2023-10-13T13:07:37;3.70;;;2.13;;
33824;SDS011;20127;48.962;8.342;2023-10-13T13:10:47;3.58;;;2.65;;
33824;SDS011;20127;48.962;8.342;2023-10-13T13:13:49;7.32;;;3.15;;
33824;SDS011;20127;48.962;8.342;2023-10-13T13:16:52;5.03;;;1.73;;
33824;SDS011;20127;48.962;8.342;2023-10-13T13:19:54;4.28;;;2.28;;
33824;SDS011;20127;48.962;8.342;2023-10-13T13:22:56;4.45;;;2.28;;
33824;SDS011;20127;48.962;8.342;2023-10-13T13:26:02;7.25;;;2.55;;
33824;SDS011;20127;48.962;8.342;2023-10-13T13:29:15;9.63;;;3.20;;
33824;SDS011;20127;48.962;8.342;2023-10-13T13:32:18;4.50;;;2.47;;
33824;SDS011;20127;48.962;8.342;2023-10-13T13:35:24;5.70;;;2.97;;
33824;SDS011;20127;48.962;8.342;2023-10-13T13:38:33;2.45;;;1.88;;
33824;SDS011;20127;48.962;8.342;2023-10-13T13:41:35;4.30;;;2.47;;
33824;SDS011;20127;48.962;8.342;2023-10-13T13:44:38;3.88;;;3.25;;
33824;SDS011;20127;48.962;8.342;2023-10-13T13:47:44;4.13;;;2.35;;
33824;SDS011;20127;48.962;8.342;2023-10-13T13:50:46;5.07;;;2.75;;
33824;SDS011;20127;48.962;8.342;2023-10-13T13:53:52;5.63;;;1.95;;
33824;SDS011;20127;48.962;8.342;2023-10-13T13:56:54;7.22;;;2.38;;
33824;SDS011;20127;48.962;8.342;2023-10-13T13:59:57;2.92;;;2.20;;
33824;SDS011;20127;48.962;8.342;2023-10-13T14:03:00;3.28;;;1.77;;
33824;SDS011;20127;48.962;8.342;2023-10-13T14:06:02;4.20;;;1.70;;
33824;SDS011;20127;48.962;8.342;2023-10-13T14:09:04;6.70;;;2.63;;
33824;SDS011;20127;48.962;8.342;2023-10-13T14:12:14;3.72;;;1.98;;
33824;SDS011;20127;48.962;8.342;2023-10-13T14:15:41;4.70;;;2.13;;
33824;SDS011;20127;48.962;8.342;2023-10-13T14:18:45;4.53;;;1.60;;
33824;SDS011;20127;48.962;8.342;2023-10-13T14:21:48;4.43;;;1.88;;
33824;SDS011;20127;48.962;8.342;2023-10-13T14:24:53;6.20;;;1.52;;
33824;SDS011;20127;48.962;8.342;2023-10-13T14:27:58;10.25;;;2.17;;
33824;SDS011;20127;48.962;8.342;2023-10-13T14:31:03;7.20;;;1.80;;
33824;SDS011;20127;48.962;8.342;2023-10-13T14:34:11;4.25;;;2.25;;
33824;SDS011;20127;48.962;8.342;2023-10-13T14:37:13;3.65;;;1.80;;
33824;SDS011;20127;48.962;8.342;2023-10-13T14:40:21;2.70;;;1.77;;
33824;SDS011;20127;48.962;8.342;2023-10-13T14:43:23;5.45;;;2.15;;
33824;SDS011;20127;48.962;8.342;2023-10-13T14:46:27;3.30;;;1.48;;
33824;SDS011;20127;48.962;8.342;2023-10-13T14:49:30;7.55;;;2.97;;
33824;SDS011;20127;48.962;8.342;2023-10-13T14:52:32;5.90;;;2.00;;
33824;SDS011;20127;48.962;8.342;2023-10-13T14:55:33;3.13;;;2.00;;
33824;SDS011;20127;48.962;8.342;2023-10-13T14:58:39;2.63;;;1.70;;
33824;SDS011;20127;48.962;8.342;2023-10-13T15:01:42;4.00;;;1.80;;
33824;SDS011;20127;48.962;8.342;2023-10-13T15:04:45;2.90;;;1.73;;
33824;SDS011;20127;48.962;8.342;2023-10-13T15:07:48;4.05;;;2.05;;
33824;SDS011;20127;48.962;8.342;2023-10-13T15:10:51;2.30;;;1.90;;
33824;SDS011;20127;48.962;8.342;2023-10-13T15:13:53;4.82;;;1.73;;
33824;SDS011;20127;48.962;8.342;2023-10-13T15:16:55;2.92;;;1.40;;
33824;SDS011;20127;48.962;8.342;2023-10-13T15:20:01;4.07;;;1.80;;
33824;SDS011;20127;48.962;8.342;2023-10-13T15:23:04;4.95;;;1.77;;
33824;SDS011;20127;48.962;8.342;2023-10-13T15:26:06;6.65;;;1.67;;
33824;SDS011;20127;48.962;8.342;2023-10-13T15:29:09;5.45;;;2.47;;
33824;SDS011;20127;48.962;8.342;2023-10-13T15:32:12;2.80;;;1.30;;
33824;SDS011;20127;48.962;8.342;2023-10-13T15:35:33;4.70;;;2.65;;
33824;SDS011;20127;48.962;8.342;2023-10-13T15:38:35;5.03;;;1.45;;
33824;SDS011;20127;48.962;8.342;2023-10-13T15:41:37;5.95;;;1.65;;
33824;SDS011;20127;48.962;8.342;2023-10-13T15:44:40;5.40;;;1.60;;
33824;SDS011;20127;48.962;8.342;2023-10-13T15:47:43;3.13;;;1.92;;
33824;SDS011;20127;48.962;8.342;2023-10-13T15:50:47;11.00;;;1.60;;
33824;SDS011;20127;48.962;8.342;2023-10-13T15:53:49;3.28;;;2.17;;
33824;SDS011;20127;48.962;8.342;2023-10-13T15:56:53;4.97;;;2.05;;
33824;SDS011;20127;48.962;8.342;2023-10-13T15:59:55;5.05;;;2.45;;
33824;SDS011;20127;48.962;8.342;2023-10-13T16:02:57;5.72;;;2.13;;
33824;SDS011;20127;48.962;8.342;2023-10-13T16:06:02;3.58;;;2.03;;
33824;SDS011;20127;48.962;8.342;2023-10-13T16:09:09;5.97;;;2.15;;
33824;SDS011;20127;48.962;8.342;2023-10-13T16:12:15;6.75;;;1.70;;
33824;SDS011;20127;48.962;8.342;2023-10-13T16:15:17;2.88;;;2.00;;
33824;SDS011;20127;48.962;8.342;2023-10-13T16:18:21;4.50;;;1.75;;
33824;SDS011;20127;48.962;8.342;2023-10-13T16:21:24;9.48;;;2.30;;
33824;SDS011;20127;48.962;8.342;2023-10-13T16:24:26;13.73;;;3.17;;
33824;SDS011;20127;48.962;8.342;2023-10-13T16:27:27;2.45;;;1.95;;
33824;SDS011;20127;48.962;8.342;2023-10-13T16:30:30;3.80;;;1.98;;
33824;SDS011;20127;48.962;8.342;2023-10-13T16:33:32;6.38;;;2.28;;
33824;SDS011;20127;48.962;8.342;2023-10-13T16:36:37;2.40;;;1.65;;
33824;SDS011;20127;48.962;8.342;2023-10-13T16:39:38;7.97;;;2.90;;
33824;SDS011;20127;48.962;8.342;2023-10-13T16:42:40;4.57;;;2.45;;
33824;SDS011;20127;48.962;8.342;2023-10-13T16:45:42;4.57;;;1.58;;
33824;SDS011;20127;48.962;8.342;2023-10-13T16:48:45;2.42;;;1.58;;
33824;SDS011;20127;48.962;8.342;2023-10-13T16:51:49;5.82;;;2.15;;
33824;SDS011;20127;48.962;8.342;2023-10-13T16:54:51;5.22;;;2.20;;
33824;SDS011;20127;48.962;8.342;2023-10-13T16:57:53;7.75;;;2.25;;
33824;SDS011;20127;48.962;8.342;2023-10-13T17:00:55;3.42;;;2.28;;
33824;SDS011;20127;48.962;8.342;2023-10-13T17:03:56;2.97;;;1.83;;
33824;SDS011;20127;48.962;8.342;2023-10-13T17:06:59;5.38;;;1.52;;
33824;SDS011;20127;48.962;8.342;2023-10-13T17:10:01;6.40;;;1.70;;
33824;SDS011;20127;48.962;8.342;2023-10-13T17:13:03;3.00;;;2.30;;
33824;SDS011;20127;48.962;8.342;2023-10-13T17:16:11;5.65;;;2.25;;
33824;SDS011;20127;48.962;8.342;2023-10-13T17:19:17;7.10;;;2.00;;
33824;SDS011;20127;48.962;8.342;2023-10-13T17:22:21;5.63;;;1.88;;
33824;SDS011;20127;48.962;8.342;2023-10-13T17:25:23;3.25;;;2.00;;
33824;SDS011;20127;48.962;8.342;2023-10-13T17:28:25;3.92;;;1.98;;
33824;SDS011;20127;48.962;8.342;2023-10-13T17:31:27;4.05;;;2.22;;
33824;SDS011;20127;48.962;8.342;2023-10-13T17:34:31;4.45;;;1.58;;
33824;SDS011;20127;48.962;8.342;2023-10-13T17:37:34;8.20;;;1.98;;
33824;SDS011;20127;48.962;8.342;2023-10-13T17:40:38;5.70;;;2.85;;
33824;SDS011;20127;48.962;8.342;2023-10-13T17:43:40;3.22;;;1.90;;
33824;SDS011;20127;48.962;8.342;2023-10-13T17:46:41;5.95;;;1.75;;
33824;SDS011;20127;48.962;8.342;2023-10-13T17:49:43;4.30;;;1.88;;
33824;SDS011;20127;48.962;8.342;2023-10-13T17:52:46;6.05;;;1.45;;
33824;SDS011;20127;48.962;8.342;2023-10-13T17:55:48;2.90;;;2.05;;
33824;SDS011;20127;48.962;8.342;2023-10-13T17:58:52;4.68;;;1.92;;
33824;SDS011;20127;48.962;8.342;2023-10-13T18:01:53;4.05;;;1.90;;
33824;SDS011;20127;48.962;8.342;2023-10-13T18:04:55;4.07;;;2.08;;
33824;SDS011;20127;48.962;8.342;2023-10-13T18:07:59;3.50;;;1.75;;
33824;SDS011;20127;48.962;8.342;2023-10-13T18:11:00;2.13;;;1.67;;
33824;SDS011;20127;48.962;8.342;2023-10-13T18:14:02;6.75;;;1.77;;
33824;SDS011;20127;48.962;8.342;2023-10-13T18:17:06;2.80;;;1.73;;
33824;SDS011;20127;48.962;8.342;2023-10-13T18:20:08;4.90;;;2.33;;
33824;SDS011;20127;48.962;8.342;2023-10-13T18:23:16;3.72;;;2.05;;
33824;SDS011;20127;48.962;8.342;2023-10-13T18:26:18;6.88;;;2.53;;
33824;SDS011;20127;48.962;8.342;2023-10-13T18:29:20;3.03;;;1.30;;
33824;SDS011;20127;48.962;8.342;2023-10-13T18:32:22;5.30;;;1.75;;
33824;SDS011;20127;48.962;8.342;2023-10-13T18:35:24;4.57;;;2.60;;
33824;SDS011;20127;48.962;8.342;2023-10-13T18:38:27;4.28;;;1.50;;
33824;SDS011;20127;48.962;8.342;2023-10-13T18:41:31;2.10;;;1.10;;
33824;SDS011;20127;48.962;8.342;2023-10-13T18:44:36;2.40;;;1.48;;
33824;SDS011;20127;48.962;8.342;2023-10-13T18:47:38;3.58;;;1.90;;
33824;SDS011;20127;48.962;8.342;2023-10-13T18:50:40;2.58;;;1.05;;